Time;durP1;ratioP1;P1;durP2;ratioP2;P2;SDS_P1;SDS_P2;PMS_P1;PMS_P2;Temp;Humidity;BMP_temperature;BMP_pressure;BME280_temperature;BME280_humidity;BME280_pressure;Samples;Min_cycle;Max_cycle;Signal;HPM_P1;HPM_P2
2023/10/22 00:01:38;;;;;;;;;;;;;;;;;;5093993;28;19904;-26
2023/10/22 00:04:06;;;;;;;;;;;;;;;;;;5094737;28;19927;-24
2023/10/22 00:06:31;;;;;;;;;;;;;;;;;;5094868;28;19960;-23
2023/10/22 00:08:58;;;;;;;;;;;;;;;;;;5094850;28;19908;-26
2023/10/22 00:11:24;;;;;;;;;;;;;;;;;;5094814;28;19980;-22
2023/10/22 00:13:50;;;;;;;;;;;;;;;;;;5094745;28;20335;-23
2023/10/22 00:16:16;;;;;;;;;;;;;;;;;;5095037;28;19965;-25
2023/10/22 00:18:41;;;;;;;;;;;;;;;;;;5095096;28;19916;-26
2023/10/22 00:21:08;;;;;;;;;;;;;;;;;;5094774;28;19987;-24
2023/10/22 00:23:34;;;;;;;;;;;;;;;;;;5094683;28;19908;-23
2023/10/22 00:26:00;;;;;;;;;;;;;;;;;;5094924;28;19908;-22
2023/10/22 00:28:26;;;;;;;;;;;;;;;;;;5094635;28;20003;-21
2023/10/22 00:30:52;;;;;;;;;;;;;;;;;;5093560;28;19912;-26
2023/10/22 00:33:17;;;;;;;;;;;;;;;;;;5094823;28;19915;-27
2023/10/22 00:35:43;;;;;;;;;;;;;;;;;;5094659;28;20327;-25
2023/10/22 00:38:09;;;;;;;;;;;;;;;;;;5094630;28;19908;-29
2023/10/22 00:40:35;;;;;;;;;;;;;;;;;;5094791;28;19919;-23
2023/10/22 00:43:01;;;;;;;;;;;;;;;;;;5094514;28;19933;-28
2023/10/22 00:45:27;;;;;;;;;;;;;;;;;;5094767;28;19926;-24
2023/10/22 00:47:53;;;;;;;;;;;;;;;;;;5094498;28;19914;-23
2023/10/22 00:50:19;;;;;;;;;;;;;;;;;;5094421;28;19931;-23
2023/10/22 00:52:45;;;;;;;;;;;;;;;;;;5094296;28;20011;-24
2023/10/22 00:55:13;;;;;;;;;;;;;;;;;;5095178;28;19916;-25
2023/10/22 00:57:39;;;;;;;;;;;;;;;;;;5094463;28;20004;-26
2023/10/22 01:00:06;;;;;;;;;;;;;;;;;;5094675;28;19947;-28
2023/10/22 01:02:32;;;;;;;;;;;;;;;;;;5094035;28;20761;-25
2023/10/22 01:04:59;;;;;;;;;;;;;;;;;;5094382;28;19947;-27
2023/10/22 01:07:25;;;;;;;;;;;;;;;;;;5093607;28;20003;-26
2023/10/22 01:09:51;;;;;;;;;;;;;;;;;;5094247;28;19944;-27
2023/10/22 01:12:17;;;;;;;;;;;;;;;;;;5094491;28;19969;-26
2023/10/22 01:14:43;;;;;;;;;;;;;;;;;;5098004;28;19918;-30
2023/10/22 01:17:09;;;;;;;;;;;;;;;;;;5098002;28;19915;-25
2023/10/22 01:19:35;;;;;;;;;;;;;;;;;;5097880;28;19919;-28
2023/10/22 01:22:01;;;;;;;;;;;;;;;;;;5097847;28;20247;-27
2023/10/22 01:24:27;;;;;;;;;;;;;;;;;;5097820;28;19908;-27
2023/10/22 01:26:53;;;;;;;;;;;;;;;;;;5097777;28;20247;-25
2023/10/22 01:29:19;;;;;;;;;;;;;;;;;;5097783;28;20235;-25
2023/10/22 01:31:46;;;;;;;;;;;;;;;;;;5097660;28;19912;-22
2023/10/22 01:34:12;;;;;;;;;;;;;;;;;;5097579;28;19908;-25
2023/10/22 01:36:38;;;;;;;;;;;;;;;;;;5097537;28;19970;-20
2023/10/22 01:39:04;;;;;;;;;;;;;;;;;;5096539;28;19915;-22
2023/10/22 01:41:30;;;;;;;;;;;;;;;;;;5097475;28;19989;-26
2023/10/22 01:43:58;;;;;;;;;;;;;;;;;;5097405;28;19912;-23
2023/10/22 01:46:24;;;;;;;;;;;;;;;;;;5097679;28;19915;-21
2023/10/22 01:48:50;;;;;;;;;;;;;;;;;;5097417;28;19965;-26
2023/10/22 01:51:16;;;;;;;;;;;;;;;;;;5097267;28;19912;-26
2023/10/22 01:53:42;;;;;;;;;;;;;;;;;;5097230;28;19999;-21
2023/10/22 01:56:09;;;;;;;;;;;;;;;;;;5097524;28;19915;-23
2023/10/22 01:58:35;;;;;;;;;;;;;;;;;;5097160;28;19935;-26
2023/10/22 02:01:02;;;;;;;;;;;;;;;;;;5097379;28;19909;-23
2023/10/22 02:03:28;;;;;;;;;;;;;;;;;;5096815;28;19977;-27
2023/10/22 02:05:54;;;;;;;;;;;;;;;;;;5097048;28;19919;-23
2023/10/22 02:08:20;;;;;;;;;;;;;;;;;;5097015;28;19995;-28
2023/10/22 02:10:47;;;;;;;;;;;;;;;;;;5097410;28;20230;-23
2023/10/22 02:13:13;;;;;;;;;;;;;;;;;;5096896;28;20255;-25
2023/10/22 02:15:39;;;;;;;;;;;;;;;;;;5096815;28;19908;-26
2023/10/22 02:18:05;;;;;;;;;;;;;;;;;;5097054;28;20281;-25
2023/10/22 02:20:31;;;;;;;;;;;;;;;;;;5096955;28;19908;-25
2023/10/22 02:22:57;;;;;;;;;;;;;;;;;;5096883;28;19912;-22
2023/10/22 02:25:23;;;;;;;;;;;;;;;;;;5095687;28;19916;-23
2023/10/22 02:27:49;;;;;;;;;;;;;;;;;;5096612;28;20272;-23
2023/10/22 02:30:15;;;;;;;;;;;;;;;;;;5096580;28;19930;-26
2023/10/22 02:32:41;;;;;;;;;;;;;;;;;;5095359;28;19912;-24
2023/10/22 02:35:07;;;;;;;;;;;;;;;;;;5096437;28;20246;-29
2023/10/22 02:37:33;;;;;;;;;;;;;;;;;;5096421;28;20331;-31
2023/10/22 02:39:59;;;;;;;;;;;;;;;;;;5096396;28;19908;-27
2023/10/22 02:42:26;;;;;;;;;;;;;;;;;;5096243;28;19908;-23
2023/10/22 02:44:52;;;;;;;;;;;;;;;;;;5096555;28;20379;-25
2023/10/22 02:47:18;;;;;;;;;;;;;;;;;;5096241;28;19995;-24
2023/10/22 02:49:44;;;;;;;;;;;;;;;;;;5096464;28;19919;-23
2023/10/22 02:52:10;;;;;;;;;;;;;;;;;;5095928;28;19970;-27
2023/10/22 02:54:36;;;;;;;;;;;;;;;;;;5096134;28;20381;-28
2023/10/22 02:57:02;;;;;;;;;;;;;;;;;;5096044;28;19908;-24
2023/10/22 02:59:28;;;;;;;;;;;;;;;;;;5095981;28;20027;-24
2023/10/22 03:01:54;;;;;;;;;;;;;;;;;;5094862;28;20346;-21
2023/10/22 03:04:20;;;;;;;;;;;;;;;;;;5095760;28;19920;-22
2023/10/22 03:06:46;;;;;;;;;;;;;;;;;;5095848;28;19912;-29
2023/10/22 03:09:13;;;;;;;;;;;;;;;;;;5096097;28;19936;-27
2023/10/22 03:11:39;;;;;;;;;;;;;;;;;;5095978;28;20327;-23
2023/10/22 03:14:05;;;;;;;;;;;;;;;;;;5095684;28;19938;-25
2023/10/22 03:16:31;;;;;;;;;;;;;;;;;;5095980;28;19916;-22
2023/10/22 03:18:56;;;;;;;;;;;;;;;;;;5095865;28;19962;-28
2023/10/22 03:21:28;;;;;;;;;;;;;;;;;;5095852;28;20202;-25
2023/10/22 03:23:54;;;;;;;;;;;;;;;;;;5095505;28;19908;-27
2023/10/22 03:26:20;;;;;;;;;;;;;;;;;;5095543;28;19919;-25
2023/10/22 03:28:46;;;;;;;;;;;;;;;;;;5095465;28;20358;-24
2023/10/22 03:31:12;;;;;;;;;;;;;;;;;;5095387;28;20019;-28
2023/10/22 03:33:38;;;;;;;;;;;;;;;;;;5095593;28;19908;-24
2023/10/22 03:36:04;;;;;;;;;;;;;;;;;;5095139;28;20013;-26
2023/10/22 03:38:30;;;;;;;;;;;;;;;;;;5095297;28;19908;-23
2023/10/22 03:40:56;;;;;;;;;;;;;;;;;;5095510;28;19919;-26
2023/10/22 03:43:22;;;;;;;;;;;;;;;;;;5095195;28;19955;-22
2023/10/22 03:45:48;;;;;;;;;;;;;;;;;;5095175;28;19908;-26
2023/10/22 03:48:13;;;;;;;;;;;;;;;;;;5095160;28;19908;-27
2023/10/22 03:50:39;;;;;;;;;;;;;;;;;;5094986;28;20247;-27
2023/10/22 03:53:05;;;;;;;;;;;;;;;;;;5095056;28;20343;-25
2023/10/22 03:55:31;;;;;;;;;;;;;;;;;;5095054;28;20017;-22
2023/10/22 03:57:57;;;;;;;;;;;;;;;;;;5095353;28;20408;-26
2023/10/22 04:00:23;;;;;;;;;;;;;;;;;;5094978;28;20282;-23
2023/10/22 04:02:49;;;;;;;;;;;;;;;;;;5094683;28;19920;-26
2023/10/22 04:05:15;;;;;;;;;;;;;;;;;;5095165;28;19981;-23
2023/10/22 04:07:41;;;;;;;;;;;;;;;;;;5094858;28;20293;-25
2023/10/22 04:10:09;;;;;;;;;;;;;;;;;;5094872;28;19912;-25
2023/10/22 04:12:35;;;;;;;;;;;;;;;;;;5094697;28;19923;-24
2023/10/22 04:15:01;;;;;;;;;;;;;;;;;;5094842;28;19990;-25
2023/10/22 04:17:27;;;;;;;;;;;;;;;;;;5094792;28;19955;-27
2023/10/22 04:19:53;;;;;;;;;;;;;;;;;;5095086;28;19919;-24
2023/10/22 04:22:19;;;;;;;;;;;;;;;;;;5094673;28;19938;-24
2023/10/22 04:24:45;;;;;;;;;;;;;;;;;;5094704;28;20354;-22
2023/10/22 04:27:11;;;;;;;;;;;;;;;;;;5095237;28;19908;-25
2023/10/22 04:29:38;;;;;;;;;;;;;;;;;;5094968;28;19915;-29
2023/10/22 04:32:04;;;;;;;;;;;;;;;;;;5094583;28;20007;-24
2023/10/22 04:34:30;;;;;;;;;;;;;;;;;;5094889;28;19939;-25
2023/10/22 04:36:56;;;;;;;;;;;;;;;;;;5094619;28;20323;-23
2023/10/22 04:39:24;;;;;;;;;;;;;;;;;;5094600;28;19969;-30
2023/10/22 04:41:50;;;;;;;;;;;;;;;;;;5094766;28;19915;-22
2023/10/22 04:44:16;;;;;;;;;;;;;;;;;;5094559;28;19909;-26
2023/10/22 04:46:42;;;;;;;;;;;;;;;;;;5094537;28;19904;-27
2023/10/22 04:49:08;;;;;;;;;;;;;;;;;;5097709;28;20231;-22
2023/10/22 04:51:34;;;;;;;;;;;;;;;;;;5098403;28;19912;-25
2023/10/22 04:54:00;;;;;;;;;;;;;;;;;;5098601;28;20001;-24
2023/10/22 04:56:27;;;;;;;;;;;;;;;;;;5097419;28;20014;-27
2023/10/22 04:58:53;;;;;;;;;;;;;;;;;;5098621;28;19908;-27
2023/10/22 05:01:19;;;;;;;;;;;;;;;;;;5098243;28;19908;-28
2023/10/22 05:03:45;;;;;;;;;;;;;;;;;;5097893;28;19924;-24
2023/10/22 05:06:11;;;;;;;;;;;;;;;;;;5098508;28;19919;-24
2023/10/22 05:08:36;;;;;;;;;;;;;;;;;;5098451;28;19970;-25
2023/10/22 05:11:08;;;;;;;;;;;;;;;;;;5098302;28;19912;-22
2023/10/22 05:13:34;;;;;;;;;;;;;;;;;;5098270;28;19912;-21
2023/10/22 05:16:00;;;;;;;;;;;;;;;;;;5098041;28;20057;-24
2023/10/22 05:18:26;;;;;;;;;;;;;;;;;;5097991;28;19912;-23
2023/10/22 05:20:52;;;;;;;;;;;;;;;;;;5098152;28;20365;-22
2023/10/22 05:23:18;;;;;;;;;;;;;;;;;;5097784;28;19908;-25
2023/10/22 05:25:44;;;;;;;;;;;;;;;;;;5098097;28;19908;-20
2023/10/22 05:28:10;;;;;;;;;;;;;;;;;;5097830;28;19915;-23
2023/10/22 05:30:36;;;;;;;;;;;;;;;;;;5098021;28;19916;-22
2023/10/22 05:33:02;;;;;;;;;;;;;;;;;;5097573;28;20400;-25
2023/10/22 05:35:28;;;;;;;;;;;;;;;;;;5097628;28;19918;-26
2023/10/22 05:37:54;;;;;;;;;;;;;;;;;;5097564;28;20339;-27
2023/10/22 05:40:20;;;;;;;;;;;;;;;;;;5097820;28;20339;-25
2023/10/22 05:42:46;;;;;;;;;;;;;;;;;;5097443;28;20387;-25
2023/10/22 05:45:12;;;;;;;;;;;;;;;;;;5097484;28;20343;-21
2023/10/22 05:47:38;;;;;;;;;;;;;;;;;;5097685;28;20354;-22
2023/10/22 05:50:04;;;;;;;;;;;;;;;;;;5097438;28;19973;-26
2023/10/22 05:52:30;;;;;;;;;;;;;;;;;;5097210;28;19916;-23
2023/10/22 05:54:56;;;;;;;;;;;;;;;;;;5097336;28;19908;-23
2023/10/22 05:57:23;;;;;;;;;;;;;;;;;;5097207;28;19909;-22
2023/10/22 05:59:49;;;;;;;;;;;;;;;;;;5097096;28;19994;-22
2023/10/22 06:02:14;;;;;;;;;;;;;;;;;;5096909;28;19955;-21
2023/10/22 06:04:40;;;;;;;;;;;;;;;;;;5097359;28;19912;-24
2023/10/22 06:07:07;;;;;;;;;;;;;;;;;;5097062;28;19923;-22
2023/10/22 06:09:33;;;;;;;;;;;;;;;;;;5097322;28;19916;-20
2023/10/22 06:12:00;;;;;;;;;;;;;;;;;;5096720;28;20003;-22
2023/10/22 06:14:26;;;;;;;;;;;;;;;;;;5096890;28;19951;-26
2023/10/22 06:16:52;;;;;;;;;;;;;;;;;;5096886;28;19904;-23
2023/10/22 06:19:18;;;;;;;;;;;;;;;;;;5096793;28;19981;-25
2023/10/22 06:21:44;;;;;;;;;;;;;;;;;;5096795;28;19904;-29
2023/10/22 06:24:10;;;;;;;;;;;;;;;;;;5096605;28;20362;-28
2023/10/22 06:26:36;;;;;;;;;;;;;;;;;;5096972;28;19904;-22
2023/10/22 06:29:02;;;;;;;;;;;;;;;;;;5096654;28;20247;-27
2023/10/22 06:31:28;;;;;;;;;;;;;;;;;;5096753;28;20374;-20
2023/10/22 06:33:54;;;;;;;;;;;;;;;;;;5096461;28;19915;-22
2023/10/22 06:36:20;;;;;;;;;;;;;;;;;;5096435;28;20227;-22
2023/10/22 06:38:46;;;;;;;;;;;;;;;;;;5096702;28;20239;-22
2023/10/22 06:41:12;;;;;;;;;;;;;;;;;;5096374;28;19947;-28
2023/10/22 06:43:38;;;;;;;;;;;;;;;;;;5096346;28;19916;-25
2023/10/22 06:46:04;;;;;;;;;;;;;;;;;;5096353;28;19908;-25
2023/10/22 06:48:30;;;;;;;;;;;;;;;;;;5096222;28;19908;-21
2023/10/22 06:50:56;;;;;;;;;;;;;;;;;;5096145;28;19930;-26
2023/10/22 06:53:22;;;;;;;;;;;;;;;;;;5096342;28;19908;-21
2023/10/22 06:55:48;;;;;;;;;;;;;;;;;;5096356;28;19912;-23
2023/10/22 06:58:14;;;;;;;;;;;;;;;;;;5096019;28;19919;-23
2023/10/22 07:00:40;;;;;;;;;;;;;;;;;;5096266;28;19961;-26
2023/10/22 07:03:05;;;;;;;;;;;;;;;;;;5095758;28;20022;-22
2023/10/22 07:05:31;;;;;;;;;;;;;;;;;;5095936;28;19919;-22
2023/10/22 07:07:57;;;;;;;;;;;;;;;;;;5096138;28;19908;-26
2023/10/22 07:10:23;;;;;;;;;;;;;;;;;;5095619;28;19908;-20
2023/10/22 07:12:50;;;;;;;;;;;;;;;;;;5095611;28;19968;-22
2023/10/22 07:15:16;;;;;;;;;;;;;;;;;;5095793;28;19918;-26
2023/10/22 07:17:42;;;;;;;;;;;;;;;;;;5096020;28;20270;-25
2023/10/22 07:20:08;;;;;;;;;;;;;;;;;;5095725;28;19923;-24
2023/10/22 07:22:34;;;;;;;;;;;;;;;;;;5095543;28;20350;-24
2023/10/22 07:25:00;;;;;;;;;;;;;;;;;;5095538;28;19908;-24
2023/10/22 07:27:26;;;;;;;;;;;;;;;;;;5095475;28;19916;-22
2023/10/22 07:29:52;;;;;;;;;;;;;;;;;;5095682;28;19908;-26
2023/10/22 07:32:18;;;;;;;;;;;;;;;;;;5095507;28;19912;-20
2023/10/22 07:34:44;;;;;;;;;;;;;;;;;;5095396;28;19943;-24
2023/10/22 07:37:11;;;;;;;;;;;;;;;;;;5095411;28;20298;-24
2023/10/22 07:39:37;;;;;;;;;;;;;;;;;;5095609;28;20005;-23
2023/10/22 07:42:03;;;;;;;;;;;;;;;;;;5095234;28;20342;-21
2023/10/22 07:44:29;;;;;;;;;;;;;;;;;;5095239;28;20339;-25
2023/10/22 07:46:55;;;;;;;;;;;;;;;;;;5095469;28;20357;-23
2023/10/22 07:49:21;;;;;;;;;;;;;;;;;;5095402;28;19908;-23
2023/10/22 07:51:47;;;;;;;;;;;;;;;;;;5095206;28;19927;-26
2023/10/22 07:54:13;;;;;;;;;;;;;;;;;;5095076;28;19917;-25
2023/10/22 07:56:39;;;;;;;;;;;;;;;;;;5095020;28;20009;-23
2023/10/22 07:59:05;;;;;;;;;;;;;;;;;;5095783;28;19955;-24
2023/10/22 08:01:31;;;;;;;;;;;;;;;;;;5095034;28;19904;-24
2023/10/22 08:03:57;;;;;;;;;;;;;;;;;;5094662;28;19924;-22
2023/10/22 08:06:23;;;;;;;;;;;;;;;;;;5095206;28;19926;-25
2023/10/22 08:08:49;;;;;;;;;;;;;;;;;;5094883;28;20372;-21
2023/10/22 08:11:15;;;;;;;;;;;;;;;;;;5095010;28;19912;-25
2023/10/22 08:13:41;;;;;;;;;;;;;;;;;;5094779;28;19908;-22
2023/10/22 08:16:07;;;;;;;;;;;;;;;;;;5094861;28;19919;-25
2023/10/22 08:18:33;;;;;;;;;;;;;;;;;;5094736;28;20347;-27
2023/10/22 08:20:59;;;;;;;;;;;;;;;;;;5095032;28;19908;-20
2023/10/22 08:23:24;;;;;;;;;;;;;;;;;;5097047;28;20101;-23
2023/10/22 08:25:53;;;;;;;;;;;;;;;;;;5099004;28;19909;-23
2023/10/22 08:28:19;;;;;;;;;;;;;;;;;;5098991;28;20403;-21
2023/10/22 08:30:45;;;;;;;;;;;;;;;;;;5098897;28;19939;-28
2023/10/22 08:33:11;;;;;;;;;;;;;;;;;;5099067;28;19912;-24
2023/10/22 08:35:37;;;;;;;;;;;;;;;;;;5098816;28;20002;-24
2023/10/22 08:38:03;;;;;;;;;;;;;;;;;;5099089;28;20342;-24
2023/10/22 08:40:29;;;;;;;;;;;;;;;;;;5099020;28;20023;-22
2023/10/22 08:42:55;;;;;;;;;;;;;;;;;;5098612;28;20362;-26
2023/10/22 08:45:22;;;;;;;;;;;;;;;;;;5098583;28;19944;-25
2023/10/22 08:47:48;;;;;;;;;;;;;;;;;;5098519;28;19907;-27
2023/10/22 08:50:14;;;;;;;;;;;;;;;;;;5098568;28;19961;-22
2023/10/22 08:52:40;;;;;;;;;;;;;;;;;;5098371;28;20320;-22
2023/10/22 08:55:07;;;;;;;;;;;;;;;;;;5098528;28;20224;-25
2023/10/22 08:57:33;;;;;;;;;;;;;;;;;;5098480;28;19966;-25
2023/10/22 08:59:59;;;;;;;;;;;;;;;;;;5098416;28;20327;-25
2023/10/22 09:02:28;;;;;;;;;;;;;;;;;;5098053;28;20334;-27
2023/10/22 09:04:54;;;;;;;;;;;;;;;;;;5098254;28;19933;-31
2023/10/22 09:07:19;;;;;;;;;;;;;;;;;;5098167;28;19909;-23
2023/10/22 09:09:45;;;;;;;;;;;;;;;;;;5098170;28;20299;-23
2023/10/22 09:12:13;;;;;;;;;;;;;;;;;;5098011;28;20339;-25
2023/10/22 09:14:39;;;;;;;;;;;;;;;;;;5097115;28;20275;-21
2023/10/22 09:17:05;;;;;;;;;;;;;;;;;;5098059;28;19908;-22
2023/10/22 09:19:31;;;;;;;;;;;;;;;;;;5096981;28;19919;-25
2023/10/22 09:21:57;;;;;;;;;;;;;;;;;;5097797;28;19912;-26
2023/10/22 09:24:22;;;;;;;;;;;;;;;;;;5098162;28;19912;-23
2023/10/22 09:26:49;;;;;;;;;;;;;;;;;;5096847;28;19909;-22
2023/10/22 09:29:16;;;;;;;;;;;;;;;;;;5097917;28;19923;-22
2023/10/22 09:31:42;;;;;;;;;;;;;;;;;;5097760;28;19924;-22
2023/10/22 09:34:08;;;;;;;;;;;;;;;;;;5097180;28;20254;-22
2023/10/22 09:36:34;;;;;;;;;;;;;;;;;;5097988;28;19915;-21
2023/10/22 09:39:01;;;;;;;;;;;;;;;;;;5097911;28;19908;-31
2023/10/22 09:41:27;;;;;;;;;;;;;;;;;;5097615;28;19923;-24
2023/10/22 09:43:53;;;;;;;;;;;;;;;;;;5097495;28;20002;-24
2023/10/22 09:46:19;;;;;;;;;;;;;;;;;;5097720;28;19959;-25
2023/10/22 09:48:44;;;;;;;;;;;;;;;;;;5097405;28;19919;-23
2023/10/22 09:51:11;;;;;;;;;;;;;;;;;;5097269;28;19913;-26
2023/10/22 09:53:38;;;;;;;;;;;;;;;;;;5097570;28;19951;-23
2023/10/22 09:56:06;;;;;;;;;;;;;;;;;;5097248;28;19909;-24
2023/10/22 09:58:32;;;;;;;;;;;;;;;;;;5097235;28;19931;-24
2023/10/22 10:00:58;;;;;;;;;;;;;;;;;;5097455;28;20312;-23
2023/10/22 10:03:24;;;;;;;;;;;;;;;;;;5097016;28;19920;-24
2023/10/22 10:05:51;;;;;;;;;;;;;;;;;;5097108;28;19908;-21
2023/10/22 10:08:17;;;;;;;;;;;;;;;;;;5097133;28;20003;-23
2023/10/22 10:10:43;;;;;;;;;;;;;;;;;;5097031;28;19908;-26
2023/10/22 10:13:09;;;;;;;;;;;;;;;;;;5097096;28;20296;-25
2023/10/22 10:15:35;;;;;;;;;;;;;;;;;;5096958;28;19973;-21
2023/10/22 10:18:01;;;;;;;;;;;;;;;;;;5097138;28;20347;-29
2023/10/22 10:20:27;;;;;;;;;;;;;;;;;;5096842;28;19965;-29
2023/10/22 10:22:53;;;;;;;;;;;;;;;;;;5097009;28;19916;-25
2023/10/22 10:25:19;;;;;;;;;;;;;;;;;;5096721;28;19908;-22
2023/10/22 10:27:45;;;;;;;;;;;;;;;;;;5096969;28;19919;-27
2023/10/22 10:30:11;;;;;;;;;;;;;;;;;;5097413;28;19919;-22
2023/10/22 10:32:37;;;;;;;;;;;;;;;;;;5096714;28;19920;-24
2023/10/22 10:35:03;;;;;;;;;;;;;;;;;;5096847;28;19915;-23
2023/10/22 10:37:30;;;;;;;;;;;;;;;;;;5096501;28;19908;-21
2023/10/22 10:39:56;;;;;;;;;;;;;;;;;;5096763;28;19908;-24
2023/10/22 10:42:22;;;;;;;;;;;;;;;;;;5096309;28;19919;-21
2023/10/22 10:44:48;;;;;;;;;;;;;;;;;;5096012;28;19987;-21
2023/10/22 10:47:14;;;;;;;;;;;;;;;;;;5095750;28;19908;-29
2023/10/22 10:49:39;;;;;;;;;;;;;;;;;;5096187;28;19908;-22
2023/10/22 10:52:05;;;;;;;;;;;;;;;;;;5096074;28;19912;-24
2023/10/22 10:54:31;;;;;;;;;;;;;;;;;;5096413;28;19908;-25
2023/10/22 10:56:58;;;;;;;;;;;;;;;;;;5095155;28;19916;-24
2023/10/22 10:59:24;;;;;;;;;;;;;;;;;;5096084;28;19908;-22
2023/10/22 11:01:50;;;;;;;;;;;;;;;;;;5096218;28;19930;-28
2023/10/22 11:04:16;;;;;;;;;;;;;;;;;;5095813;28;19959;-23
2023/10/22 11:06:42;;;;;;;;;;;;;;;;;;5096173;28;19911;-25
2023/10/22 11:09:08;;;;;;;;;;;;;;;;;;5095896;28;19928;-25
2023/10/22 11:11:34;;;;;;;;;;;;;;;;;;5095771;28;20007;-23
2023/10/22 11:14:00;;;;;;;;;;;;;;;;;;5095731;28;20224;-26
2023/10/22 11:16:26;;;;;;;;;;;;;;;;;;5096017;28;20207;-21
2023/10/22 11:18:53;;;;;;;;;;;;;;;;;;5095700;28;20345;-25
2023/10/22 11:21:19;;;;;;;;;;;;;;;;;;5095934;28;20002;-25
2023/10/22 11:23:46;;;;;;;;;;;;;;;;;;5095610;28;20311;-21
2023/10/22 11:26:12;;;;;;;;;;;;;;;;;;5095593;28;19919;-23
2023/10/22 11:28:38;;;;;;;;;;;;;;;;;;5095539;28;19995;-25
2023/10/22 11:31:04;;;;;;;;;;;;;;;;;;5095459;28;19908;-27
2023/10/22 11:33:34;;;;;;;;;;;;;;;;;;5094600;28;20409;-22
2023/10/22 11:36:00;;;;;;;;;;;;;;;;;;5095658;28;20247;-20
2023/10/22 11:38:26;;;;;;;;;;;;;;;;;;5095394;28;19904;-25
2023/10/22 11:40:52;;;;;;;;;;;;;;;;;;5095367;28;20314;-24
2023/10/22 11:43:18;;;;;;;;;;;;;;;;;;5095185;28;20242;-27
2023/10/22 11:45:44;;;;;;;;;;;;;;;;;;5095279;28;19912;-22
2023/10/22 11:48:10;;;;;;;;;;;;;;;;;;5095243;28;19904;-25
2023/10/22 11:50:37;;;;;;;;;;;;;;;;;;5095162;28;19908;-26
2023/10/22 11:53:03;;;;;;;;;;;;;;;;;;5095085;28;20243;-22
2023/10/22 11:55:29;;;;;;;;;;;;;;;;;;5095618;28;20038;-23
2023/10/22 11:57:55;;;;;;;;;;;;;;;;;;5094910;28;19908;-19
2023/10/22 12:00:21;;;;;;;;;;;;;;;;;;5095239;28;19920;-22
2023/10/22 12:02:47;;;;;;;;;;;;;;;;;;5094689;28;20003;-24
2023/10/22 12:05:14;;;;;;;;;;;;;;;;;;5095257;28;19908;-26
2023/10/22 12:07:40;;;;;;;;;;;;;;;;;;5094980;28;19912;-24
2023/10/22 12:10:06;;;;;;;;;;;;;;;;;;5094919;28;20251;-25
2023/10/22 12:12:32;;;;;;;;;;;;;;;;;;5094758;28;19912;-22
2023/10/22 12:14:58;;;;;;;;;;;;;;;;;;5094959;28;19913;-24
2023/10/22 12:17:24;;;;;;;;;;;;;;;;;;5095187;28;20057;-22
2023/10/22 12:19:50;;;;;;;;;;;;;;;;;;5094832;28;20360;-22
2023/10/22 12:22:16;;;;;;;;;;;;;;;;;;5095064;28;20326;-26
2023/10/22 12:24:43;;;;;;;;;;;;;;;;;;5095140;28;19966;-24
2023/10/22 12:27:09;;;;;;;;;;;;;;;;;;5094880;28;20338;-24
2023/10/22 12:29:34;;;;;;;;;;;;;;;;;;5094723;28;19912;-25
2023/10/22 12:32:00;;;;;;;;;;;;;;;;;;5094806;28;19912;-26
2023/10/22 12:34:28;;;;;;;;;;;;;;;;;;5094687;28;19939;-26
2023/10/22 12:36:54;;;;;;;;;;;;;;;;;;5094996;28;19904;-23
2023/10/22 12:39:20;;;;;;;;;;;;;;;;;;5094610;28;19908;-21
2023/10/22 12:41:46;;;;;;;;;;;;;;;;;;5094575;28;19915;-24
2023/10/22 12:44:11;;;;;;;;;;;;;;;;;;5094515;28;19908;-22
2023/10/22 12:46:37;;;;;;;;;;;;;;;;;;5094798;28;20247;-24
2023/10/22 12:49:03;;;;;;;;;;;;;;;;;;5094589;28;20335;-23
2023/10/22 12:51:29;;;;;;;;;;;;;;;;;;5094477;28;20378;-29
2023/10/22 12:53:55;;;;;;;;;;;;;;;;;;5093426;28;19908;-25
2023/10/22 12:56:21;;;;;;;;;;;;;;;;;;5094473;28;19908;-26
2023/10/22 12:58:48;;;;;;;;;;;;;;;;;;5094412;28;19966;-21
2023/10/22 13:01:18;;;;;;;;;;;;;;;;;;5094474;28;19916;-22
2023/10/22 13:03:44;;;;;;;;;;;;;;;;;;5094320;28;19920;-21
2023/10/22 13:06:10;;;;;;;;;;;;;;;;;;5094459;28;19912;-24
2023/10/22 13:08:36;;;;;;;;;;;;;;;;;;5095187;28;19961;-24
2023/10/22 13:11:03;;;;;;;;;;;;;;;;;;5098123;28;19916;-26
2023/10/22 13:13:29;;;;;;;;;;;;;;;;;;5097044;28;19912;-25
2023/10/22 13:15:55;;;;;;;;;;;;;;;;;;5098071;28;20300;-22
2023/10/22 13:18:21;;;;;;;;;;;;;;;;;;5098068;28;20254;-22
2023/10/22 13:20:47;;;;;;;;;;;;;;;;;;5098226;28;19923;-23
2023/10/22 13:23:13;;;;;;;;;;;;;;;;;;5097974;28;19999;-28
2023/10/22 13:25:39;;;;;;;;;;;;;;;;;;5098165;28;19909;-21
2023/10/22 13:28:06;;;;;;;;;;;;;;;;;;5097907;28;20441;-29
2023/10/22 13:30:32;;;;;;;;;;;;;;;;;;5097829;28;19909;-21
2023/10/22 13:32:59;;;;;;;;;;;;;;;;;;5097645;28;19919;-22
2023/10/22 13:35:25;;;;;;;;;;;;;;;;;;5097681;28;20410;-23
2023/10/22 13:37:51;;;;;;;;;;;;;;;;;;5097941;28;19908;-24
2023/10/22 13:40:17;;;;;;;;;;;;;;;;;;5097647;28;20327;-22
2023/10/22 13:42:43;;;;;;;;;;;;;;;;;;5097713;28;19915;-27
2023/10/22 13:45:09;;;;;;;;;;;;;;;;;;5097836;28;19908;-25
2023/10/22 13:47:35;;;;;;;;;;;;;;;;;;5097519;28;19961;-26
2023/10/22 13:50:01;;;;;;;;;;;;;;;;;;5097497;28;19999;-27
2023/10/22 13:52:27;;;;;;;;;;;;;;;;;;5097379;28;19952;-24
2023/10/22 13:54:53;;;;;;;;;;;;;;;;;;5097314;28;19919;-23
2023/10/22 13:57:19;;;;;;;;;;;;;;;;;;5097565;28;19915;-26
2023/10/22 13:59:45;;;;;;;;;;;;;;;;;;5097199;28;19919;-22
2023/10/22 14:02:11;;;;;;;;;;;;;;;;;;5097175;28;19969;-23
2023/10/22 14:04:37;;;;;;;;;;;;;;;;;;5097053;28;19924;-23
2023/10/22 14:07:03;;;;;;;;;;;;;;;;;;5097132;28;19951;-28
2023/10/22 14:09:29;;;;;;;;;;;;;;;;;;5097151;28;19908;-23
2023/10/22 14:11:55;;;;;;;;;;;;;;;;;;5096945;28;19912;-25
2023/10/22 14:14:21;;;;;;;;;;;;;;;;;;5097268;28;19938;-25
2023/10/22 14:16:47;;;;;;;;;;;;;;;;;;5096958;28;19908;-24
2023/10/22 14:19:13;;;;;;;;;;;;;;;;;;5097247;28;19999;-21
2023/10/22 14:21:39;;;;;;;;;;;;;;;;;;5095868;28;20393;-24
2023/10/22 14:24:05;;;;;;;;;;;;;;;;;;5096720;28;19919;-23
2023/10/22 14:26:31;;;;;;;;;;;;;;;;;;5096962;28;19911;-22
2023/10/22 14:28:57;;;;;;;;;;;;;;;;;;5096719;28;19981;-23
2023/10/22 14:31:23;;;;;;;;;;;;;;;;;;5096567;28;20009;-22
2023/10/22 14:33:49;;;;;;;;;;;;;;;;;;5095520;28;19908;-25
2023/10/22 14:36:15;;;;;;;;;;;;;;;;;;5096816;28;19908;-23
2023/10/22 14:38:40;;;;;;;;;;;;;;;;;;5096517;28;19992;-26
2023/10/22 14:41:06;;;;;;;;;;;;;;;;;;5096779;28;19914;-26
2023/10/22 14:43:32;;;;;;;;;;;;;;;;;;5096329;28;19954;-23
2023/10/22 14:45:59;;;;;;;;;;;;;;;;;;5096919;28;19957;-23
2023/10/22 14:48:24;;;;;;;;;;;;;;;;;;5096621;28;19916;-25
2023/10/22 14:50:50;;;;;;;;;;;;;;;;;;5096257;28;20250;-28
2023/10/22 14:53:16;;;;;;;;;;;;;;;;;;5096053;28;20322;-28
2023/10/22 14:55:42;;;;;;;;;;;;;;;;;;5096447;28;20374;-27
2023/10/22 14:58:08;;;;;;;;;;;;;;;;;;5096146;28;20338;-22
2023/10/22 15:00:34;;;;;;;;;;;;;;;;;;5096608;28;19912;-29
2023/10/22 15:03:00;;;;;;;;;;;;;;;;;;5095898;28;19932;-23
2023/10/22 15:05:26;;;;;;;;;;;;;;;;;;5096269;28;20250;-26
2023/10/22 15:07:52;;;;;;;;;;;;;;;;;;5096183;28;19919;-23
2023/10/22 15:10:18;;;;;;;;;;;;;;;;;;5096149;28;19908;-30
2023/10/22 15:12:44;;;;;;;;;;;;;;;;;;5095940;28;19952;-22
2023/10/22 15:15:10;;;;;;;;;;;;;;;;;;5096092;28;19908;-23
2023/10/22 15:17:36;;;;;;;;;;;;;;;;;;5095781;28;20258;-25
2023/10/22 15:20:02;;;;;;;;;;;;;;;;;;5095753;28;19938;-26
2023/10/22 15:22:28;;;;;;;;;;;;;;;;;;5095637;28;20323;-21
2023/10/22 15:24:54;;;;;;;;;;;;;;;;;;5095911;28;20349;-23
2023/10/22 15:27:20;;;;;;;;;;;;;;;;;;5095629;28;20288;-25
2023/10/22 15:29:45;;;;;;;;;;;;;;;;;;5095835;28;19916;-22
2023/10/22 15:32:11;;;;;;;;;;;;;;;;;;5094991;28;20240;-25
2023/10/22 15:34:37;;;;;;;;;;;;;;;;;;5095444;28;19912;-22
2023/10/22 15:37:03;;;;;;;;;;;;;;;;;;5095454;28;19935;-24
2023/10/22 15:39:29;;;;;;;;;;;;;;;;;;5095319;28;19908;-28
2023/10/22 15:41:55;;;;;;;;;;;;;;;;;;5095222;28;20003;-29
2023/10/22 15:44:21;;;;;;;;;;;;;;;;;;5095238;28;19908;-29
2023/10/22 15:46:49;;;;;;;;;;;;;;;;;;5095238;28;19919;-23
2023/10/22 15:49:15;;;;;;;;;;;;;;;;;;5095194;28;19908;-23
2023/10/22 15:51:41;;;;;;;;;;;;;;;;;;5095105;28;19912;-25
2023/10/22 15:54:08;;;;;;;;;;;;;;;;;;5095112;28;20410;-25
2023/10/22 15:56:34;;;;;;;;;;;;;;;;;;5095190;28;19919;-29
2023/10/22 15:59:02;;;;;;;;;;;;;;;;;;5095160;28;19908;-23
2023/10/22 16:01:28;;;;;;;;;;;;;;;;;;5095659;28;20223;-24
2023/10/22 16:03:54;;;;;;;;;;;;;;;;;;5094836;28;19980;-23
2023/10/22 16:06:20;;;;;;;;;;;;;;;;;;5095025;28;19909;-24
2023/10/22 16:08:46;;;;;;;;;;;;;;;;;;5095166;28;19916;-23
2023/10/22 16:11:12;;;;;;;;;;;;;;;;;;5094861;28;19910;-21
2023/10/22 16:13:38;;;;;;;;;;;;;;;;;;5094849;28;19934;-22
2023/10/22 16:16:04;;;;;;;;;;;;;;;;;;5094897;28;20007;-22
2023/10/22 16:18:29;;;;;;;;;;;;;;;;;;5094850;28;19908;-21
2023/10/22 16:20:56;;;;;;;;;;;;;;;;;;5094871;28;19912;-22
2023/10/22 16:23:22;;;;;;;;;;;;;;;;;;5094729;28;19909;-28
2023/10/22 16:25:48;;;;;;;;;;;;;;;;;;5094769;28;19908;-23
2023/10/22 16:28:15;;;;;;;;;;;;;;;;;;5094772;28;19915;-22
2023/10/22 16:30:41;;;;;;;;;;;;;;;;;;5095015;28;20238;-24
2023/10/22 16:33:07;;;;;;;;;;;;;;;;;;5094715;28;19999;-21
2023/10/22 16:35:32;;;;;;;;;;;;;;;;;;5094719;28;20342;-24
2023/10/22 16:37:58;;;;;;;;;;;;;;;;;;5094957;28;20334;-28